sensor_id;sensor_type;location;lat;lon;timestamp;pressure;altitude;pressure_sealevel;temperature
67805;BMP180;54603;45.638;11.714;2023-05-10T15:00:33;100752.60;;;22.50
67805;BMP180;54603;45.638;11.714;2023-05-10T15:02:59;100750.60;;;22.50
67805;BMP180;54603;45.638;11.714;2023-05-10T15:05:24;100747.80;;;22.50
67805;BMP180;54603;45.638;11.714;2023-05-10T15:07:53;100778.60;;;22.94
67805;BMP180;54603;45.638;11.714;2023-05-10T15:10:19;100781.80;;;23.50
67805;BMP180;54603;45.638;11.714;2023-05-10T15:12:45;100774.40;;;23.22
67805;BMP180;54603;45.638;11.714;2023-05-10T15:15:12;100769.60;;;23.00
67805;BMP180;54603;45.638;11.714;2023-05-10T15:17:38;100764.80;;;22.80
67805;BMP180;54603;45.638;11.714;2023-05-10T15:20:04;100754.80;;;22.64
67805;BMP180;54603;45.638;11.714;2023-05-10T15:22:30;100753.40;;;22.50
67805;BMP180;54603;45.638;11.714;2023-05-10T15:24:58;100749.20;;;22.40
67805;BMP180;54603;45.638;11.714;2023-05-10T15:27:27;100747.20;;;22.34
67805;BMP180;54603;45.638;11.714;2023-05-10T15:29:54;100745.40;;;22.30
67805;BMP180;54603;45.638;11.714;2023-05-10T15:32:20;100746.40;;;22.30
67805;BMP180;54603;45.638;11.714;2023-05-10T15:34:46;100744.20;;;22.26
67805;BMP180;54603;45.638;11.714;2023-05-10T15:37:12;100743.00;;;22.20
67805;BMP180;54603;45.638;11.714;2023-05-10T15:39:38;100736.80;;;22.14
67805;BMP180;54603;45.638;11.714;2023-05-10T15:42:05;100736.20;;;22.10
67805;BMP180;54603;45.638;11.714;2023-05-10T15:44:31;100735.40;;;22.08
67805;BMP180;54603;45.638;11.714;2023-05-10T15:46:56;100733.60;;;22.00
67805;BMP180;54603;45.638;11.714;2023-05-10T15:49:22;100730.00;;;21.96
67805;BMP180;54603;45.638;11.714;2023-05-10T15:51:48;100729.80;;;21.90
67805;BMP180;54603;45.638;11.714;2023-05-10T15:54:14;100727.60;;;21.90
67805;BMP180;54603;45.638;11.714;2023-05-10T15:56:39;100728.60;;;21.80
67805;BMP180;54603;45.638;11.714;2023-05-10T15:59:05;100726.40;;;21.80
67805;BMP180;54603;45.638;11.714;2023-05-10T16:01:33;100729.20;;;21.70
67805;BMP180;54603;45.638;11.714;2023-05-10T16:03:59;100724.80;;;21.70
67805;BMP180;54603;45.638;11.714;2023-05-10T16:06:26;100725.40;;;21.70
67805;BMP180;54603;45.638;11.714;2023-05-10T16:08:53;100727.80;;;21.70
67805;BMP180;54603;45.638;11.714;2023-05-10T16:11:19;100728.40;;;21.70
67805;BMP180;54603;45.638;11.714;2023-05-10T16:13:45;100730.80;;;21.70
67805;BMP180;54603;45.638;11.714;2023-05-10T18:43:43;100700.40;;;21.06
67805;BMP180;54603;45.638;11.714;2023-05-10T18:46:09;100700.60;;;21.08
67805;BMP180;54603;45.638;11.714;2023-05-10T18:48:35;100708.00;;;21.04
67805;BMP180;54603;45.638;11.714;2023-05-10T18:51:01;100707.60;;;21.00
67805;BMP180;54603;45.638;11.714;2023-05-10T18:53:28;100707.20;;;21.00
67805;BMP180;54603;45.638;11.714;2023-05-10T18:55:56;100713.20;;;21.04
67805;BMP180;54603;45.638;11.714;2023-05-10T18:58:26;100707.00;;;21.10
67805;BMP180;54603;45.638;11.714;2023-05-10T19:00:52;100705.80;;;21.10
67805;BMP180;54603;45.638;11.714;2023-05-10T19:03:19;100705.00;;;21.10
67805;BMP180;54603;45.638;11.714;2023-05-10T19:05:46;100707.60;;;21.10
67805;BMP180;54603;45.638;11.714;2023-05-10T19:08:14;100705.40;;;21.10
67805;BMP180;54603;45.638;11.714;2023-05-10T19:10:41;100706.60;;;21.10
67805;BMP180;54603;45.638;11.714;2023-05-10T19:13:07;100705.40;;;21.12
67805;BMP180;54603;45.638;11.714;2023-05-10T19:15:34;100702.40;;;21.20
67805;BMP180;54603;45.638;11.714;2023-05-10T19:18:20;100713.00;;;21.20
67805;BMP180;54603;45.638;11.714;2023-05-10T19:20:46;100711.80;;;21.20
67805;BMP180;54603;45.638;11.714;2023-05-10T19:23:13;100709.20;;;21.20
67805;BMP180;54603;45.638;11.714;2023-05-10T19:25:40;100707.60;;;21.20
67805;BMP180;54603;45.638;11.714;2023-05-10T19:28:07;100711.80;;;21.20
67805;BMP180;54603;45.638;11.714;2023-05-10T19:30:34;100713.40;;;21.20
67805;BMP180;54603;45.638;11.714;2023-05-10T19:33:00;100714.80;;;21.30
67805;BMP180;54603;45.638;11.714;2023-05-10T19:35:29;100716.60;;;21.30
67805;BMP180;54603;45.638;11.714;2023-05-10T19:37:55;100715.80;;;21.30
67805;BMP180;54603;45.638;11.714;2023-05-10T19:40:21;100718.20;;;21.30
67805;BMP180;54603;45.638;11.714;2023-05-10T19:42:47;100714.80;;;21.30
67805;BMP180;54603;45.638;11.714;2023-05-10T19:45:13;100714.60;;;21.30
67805;BMP180;54603;45.638;11.714;2023-05-10T19:47:40;100713.80;;;21.30
67805;BMP180;54603;45.638;11.714;2023-05-10T19:50:07;100713.40;;;21.30
67805;BMP180;54603;45.638;11.714;2023-05-10T19:52:34;100712.20;;;21.32
67805;BMP180;54603;45.638;11.714;2023-05-10T19:55:00;100710.60;;;21.40
67805;BMP180;54603;45.638;11.714;2023-05-10T19:57:26;100714.60;;;21.40
67805;BMP180;54603;45.638;11.714;2023-05-10T19:59:52;100711.80;;;21.40
67805;BMP180;54603;45.638;11.714;2023-05-10T20:02:18;100711.80;;;21.40
67805;BMP180;54603;45.638;11.714;2023-05-10T20:04:46;100711.00;;;21.40
67805;BMP180;54603;45.638;11.714;2023-05-10T20:07:12;100707.40;;;21.40
67805;BMP180;54603;45.638;11.714;2023-05-10T20:09:40;100702.40;;;21.40
67805;BMP180;54603;45.638;11.714;2023-05-10T20:12:06;100698.40;;;21.40
67805;BMP180;54603;45.638;11.714;2023-05-10T20:14:32;100699.80;;;21.40
67805;BMP180;54603;45.638;11.714;2023-05-10T20:16:58;100698.00;;;21.40
67805;BMP180;54603;45.638;11.714;2023-05-10T20:19:24;100697.60;;;21.40
67805;BMP180;54603;45.638;11.714;2023-05-10T20:21:50;100692.60;;;21.40
67805;BMP180;54603;45.638;11.714;2023-05-10T20:24:16;100689.20;;;21.40
67805;BMP180;54603;45.638;11.714;2023-05-10T20:26:43;100689.00;;;21.42
67805;BMP180;54603;45.638;11.714;2023-05-10T20:29:09;100688.00;;;21.42
67805;BMP180;54603;45.638;11.714;2023-05-10T20:31:36;100687.00;;;21.44
67805;BMP180;54603;45.638;11.714;2023-05-10T20:34:04;100682.80;;;21.48
67805;BMP180;54603;45.638;11.714;2023-05-10T20:36:30;100677.60;;;21.44
67805;BMP180;54603;45.638;11.714;2023-05-10T20:38:56;100675.60;;;21.50
67805;BMP180;54603;45.638;11.714;2023-05-10T20:41:22;100675.40;;;21.50
67805;BMP180;54603;45.638;11.714;2023-05-10T20:43:49;100672.80;;;21.46
67805;BMP180;54603;45.638;11.714;2023-05-10T20:46:15;100669.20;;;21.48
67805;BMP180;54603;45.638;11.714;2023-05-10T20:48:41;100670.00;;;21.46
67805;BMP180;54603;45.638;11.714;2023-05-10T20:51:07;100669.20;;;21.44
67805;BMP180;54603;45.638;11.714;2023-05-10T20:53:34;100667.20;;;21.42
67805;BMP180;54603;45.638;11.714;2023-05-10T20:56:00;100667.80;;;21.44
67805;BMP180;54603;45.638;11.714;2023-05-10T20:58:26;100668.00;;;21.42
67805;BMP180;54603;45.638;11.714;2023-05-10T21:00:52;100666.20;;;21.44
67805;BMP180;54603;45.638;11.714;2023-05-10T21:03:18;100663.80;;;21.40
67805;BMP180;54603;45.638;11.714;2023-05-10T21:05:44;100661.60;;;21.40
67805;BMP180;54603;45.638;11.714;2023-05-10T21:08:10;100660.20;;;21.40
67805;BMP180;54603;45.638;11.714;2023-05-10T21:10:36;100662.80;;;21.40
67805;BMP180;54603;45.638;11.714;2023-05-10T21:13:01;100663.00;;;21.40
67805;BMP180;54603;45.638;11.714;2023-05-10T21:15:27;100663.00;;;21.40
67805;BMP180;54603;45.638;11.714;2023-05-10T21:17:53;100660.80;;;21.40
67805;BMP180;54603;45.638;11.714;2023-05-10T21:20:19;100655.60;;;21.40
67805;BMP180;54603;45.638;11.714;2023-05-10T21:22:45;100653.60;;;21.40
67805;BMP180;54603;45.638;11.714;2023-05-10T21:25:10;100644.60;;;21.40
67805;BMP180;54603;45.638;11.714;2023-05-10T21:27:36;100648.80;;;21.40
67805;BMP180;54603;45.638;11.714;2023-05-10T21:30:02;100649.00;;;21.40
67805;BMP180;54603;45.638;11.714;2023-05-10T21:32:28;100645.80;;;21.40
67805;BMP180;54603;45.638;11.714;2023-05-10T21:34:54;100643.00;;;21.40
67805;BMP180;54603;45.638;11.714;2023-05-10T21:37:20;100642.60;;;21.40
67805;BMP180;54603;45.638;11.714;2023-05-10T21:39:45;100643.80;;;21.40
67805;BMP180;54603;45.638;11.714;2023-05-10T21:42:11;100643.00;;;21.40
67805;BMP180;54603;45.638;11.714;2023-05-10T21:44:37;100643.00;;;21.40
67805;BMP180;54603;45.638;11.714;2023-05-10T21:47:03;100643.40;;;21.40
67805;BMP180;54603;45.638;11.714;2023-05-10T21:49:29;100644.00;;;21.40
67805;BMP180;54603;45.638;11.714;2023-05-10T21:51:55;100645.20;;;21.40
67805;BMP180;54603;45.638;11.714;2023-05-10T21:54:21;100643.40;;;21.40
67805;BMP180;54603;45.638;11.714;2023-05-10T21:56:47;100640.60;;;21.40
67805;BMP180;54603;45.638;11.714;2023-05-10T21:59:13;100636.40;;;21.40
67805;BMP180;54603;45.638;11.714;2023-05-10T22:01:39;100634.40;;;21.40
67805;BMP180;54603;45.638;11.714;2023-05-10T22:04:04;100629.60;;;21.40
67805;BMP180;54603;45.638;11.714;2023-05-10T22:06:30;100632.20;;;21.40
67805;BMP180;54603;45.638;11.714;2023-05-10T22:08:56;100625.80;;;21.36
67805;BMP180;54603;45.638;11.714;2023-05-10T22:11:22;100626.40;;;21.38
67805;BMP180;54603;45.638;11.714;2023-05-10T22:13:48;100633.80;;;21.34
67805;BMP180;54603;45.638;11.714;2023-05-10T22:16:14;100633.00;;;21.32
67805;BMP180;54603;45.638;11.714;2023-05-10T22:18:40;100634.80;;;21.32
67805;BMP180;54603;45.638;11.714;2023-05-10T22:21:08;100631.80;;;21.30
67805;BMP180;54603;45.638;11.714;2023-05-10T22:23:34;100630.20;;;21.30
67805;BMP180;54603;45.638;11.714;2023-05-10T22:26:01;100631.40;;;21.30
67805;BMP180;54603;45.638;11.714;2023-05-10T22:28:28;100632.40;;;21.30
67805;BMP180;54603;45.638;11.714;2023-05-10T22:30:54;100629.60;;;21.30
67805;BMP180;54603;45.638;11.714;2023-05-10T22:33:20;100630.80;;;21.30
67805;BMP180;54603;45.638;11.714;2023-05-10T22:35:46;100634.20;;;21.30
67805;BMP180;54603;45.638;11.714;2023-05-10T22:38:12;100627.20;;;21.30
67805;BMP180;54603;45.638;11.714;2023-05-10T22:40:38;100627.20;;;21.30
67805;BMP180;54603;45.638;11.714;2023-05-10T22:43:04;100628.40;;;21.30
67805;BMP180;54603;45.638;11.714;2023-05-10T22:45:30;100630.40;;;21.30
67805;BMP180;54603;45.638;11.714;2023-05-10T22:47:56;100633.00;;;21.30
67805;BMP180;54603;45.638;11.714;2023-05-10T22:50:21;100631.40;;;21.30
67805;BMP180;54603;45.638;11.714;2023-05-10T22:52:48;100625.80;;;21.30
67805;BMP180;54603;45.638;11.714;2023-05-10T22:55:15;100627.20;;;21.30
67805;BMP180;54603;45.638;11.714;2023-05-10T22:57:41;100621.60;;;21.30
67805;BMP180;54603;45.638;11.714;2023-05-10T23:00:07;100615.40;;;21.30
67805;BMP180;54603;45.638;11.714;2023-05-10T23:02:33;100615.20;;;21.30
67805;BMP180;54603;45.638;11.714;2023-05-10T23:04:59;100612.20;;;21.30
67805;BMP180;54603;45.638;11.714;2023-05-10T23:07:25;100608.80;;;21.30
67805;BMP180;54603;45.638;11.714;2023-05-10T23:09:51;100603.40;;;21.30
67805;BMP180;54603;45.638;11.714;2023-05-10T23:12:16;100603.20;;;21.30
67805;BMP180;54603;45.638;11.714;2023-05-10T23:14:43;100598.00;;;21.30
67805;BMP180;54603;45.638;11.714;2023-05-10T23:17:10;100596.60;;;21.28
67805;BMP180;54603;45.638;11.714;2023-05-10T23:19:37;100599.00;;;21.22
67805;BMP180;54603;45.638;11.714;2023-05-10T23:22:02;100602.20;;;21.24
67805;BMP180;54603;45.638;11.714;2023-05-10T23:24:28;100596.80;;;21.22
67805;BMP180;54603;45.638;11.714;2023-05-10T23:26:54;100595.00;;;21.22
67805;BMP180;54603;45.638;11.714;2023-05-10T23:29:20;100596.40;;;21.20
67805;BMP180;54603;45.638;11.714;2023-05-10T23:31:48;100595.00;;;21.20
67805;BMP180;54603;45.638;11.714;2023-05-10T23:34:15;100593.00;;;21.20
67805;BMP180;54603;45.638;11.714;2023-05-10T23:36:42;100590.60;;;21.20
67805;BMP180;54603;45.638;11.714;2023-05-10T23:39:08;100593.00;;;21.20
67805;BMP180;54603;45.638;11.714;2023-05-10T23:41:33;100587.80;;;21.20
67805;BMP180;54603;45.638;11.714;2023-05-10T23:44:00;100591.40;;;21.20
67805;BMP180;54603;45.638;11.714;2023-05-10T23:46:29;100587.40;;;21.20
67805;BMP180;54603;45.638;11.714;2023-05-10T23:48:54;100581.40;;;21.20
67805;BMP180;54603;45.638;11.714;2023-05-10T23:51:20;100582.40;;;21.20
67805;BMP180;54603;45.638;11.714;2023-05-10T23:53:46;100578.40;;;21.20
67805;BMP180;54603;45.638;11.714;2023-05-10T23:56:12;100577.80;;;21.20
67805;BMP180;54603;45.638;11.714;2023-05-10T23:58:37;100578.00;;;21.20
